Time;durP1;ratioP1;P1;durP2;ratioP2;P2;SDS_P1;SDS_P2;PMS_P1;PMS_P2;Temp;Humidity;BMP_temperature;BMP_pressure;BME280_temperature;BME280_humidity;BME280_pressure;Samples;Min_cycle;Max_cycle;Signal;HPM_P1;HPM_P2
2022/07/04 00:00:02;;;;;;;6.18;2.70;;;21.40;99.90;;;;;;5070290;28;20394;-56
2022/07/04 00:02:28;;;;;;;7.30;2.90;;;21.40;99.90;;;;;;5076902;28;20391;-56
2022/07/04 00:04:53;;;;;;;6.63;2.90;;;21.40;99.90;;;;;;5070916;28;20403;-56
2022/07/04 00:07:19;;;;;;;8.50;3.40;;;21.20;99.90;;;;;;5069581;28;20868;-56
2022/07/04 00:09:45;;;;;;;8.47;2.77;;;21.30;99.90;;;;;;5070477;28;20419;-56
2022/07/04 00:12:10;;;;;;;7.28;2.80;;;21.30;99.90;;;;;;5069859;28;20403;-56
2022/07/04 00:14:37;;;;;;;7.55;2.70;;;21.30;99.90;;;;;;5071256;28;20368;-56
2022/07/04 00:17:03;;;;;;;7.90;3.40;;;21.40;99.90;;;;;;5070170;28;20388;-56
2022/07/04 00:19:29;;;;;;;6.53;2.97;;;21.40;99.90;;;;;;5072654;28;20444;-56
2022/07/04 00:21:54;;;;;;;6.45;2.97;;;21.50;99.90;;;;;;5070736;28;20909;-56
2022/07/04 00:24:20;;;;;;;7.13;3.07;;;21.40;99.90;;;;;;5070454;28;20450;-55
2022/07/04 00:26:46;;;;;;;6.30;2.80;;;21.40;99.90;;;;;;5070862;28;20832;-56
2022/07/04 00:29:11;;;;;;;7.70;2.83;;;21.50;99.90;;;;;;5069947;28;20977;-56
2022/07/04 00:31:37;;;;;;;6.40;2.60;;;21.50;99.90;;;;;;5070793;28;20499;-56
2022/07/04 00:34:03;;;;;;;7.00;3.28;;;21.50;99.90;;;;;;5069883;28;20391;-56
2022/07/04 00:36:28;;;;;;;8.50;3.10;;;21.40;99.90;;;;;;5070577;28;20394;-55
2022/07/04 00:38:54;;;;;;;7.77;3.00;;;21.40;99.90;;;;;;5070399;28;20741;-55
2022/07/04 00:41:19;;;;;;;7.03;2.90;;;21.20;99.90;;;;;;5069754;28;20902;-55
2022/07/04 00:44:04;;;;;;;6.40;2.90;;;21.30;99.90;;;;;;5070553;28;20379;-55
2022/07/04 00:46:29;;;;;;;9.05;3.33;;;21.30;99.90;;;;;;5073235;28;20461;-55
2022/07/04 00:48:55;;;;;;;8.03;3.13;;;21.20;99.90;;;;;;5067322;28;20412;-56
2022/07/04 00:51:21;;;;;;;7.55;3.00;;;21.10;99.90;;;;;;5066567;28;20447;-55
2022/07/04 00:53:47;;;;;;;8.70;2.90;;;21.20;99.90;;;;;;5069889;28;20388;-57
2022/07/04 00:56:13;;;;;;;7.00;3.00;;;21.10;99.90;;;;;;5068959;28;20388;-57
2022/07/04 00:58:38;;;;;;;8.30;2.83;;;21.00;99.90;;;;;;5069986;28;20383;-58
2022/07/04 01:01:04;;;;;;;7.17;2.80;;;20.90;99.90;;;;;;5069170;28;20441;-57
2022/07/04 01:03:30;;;;;;;7.00;2.90;;;20.80;99.90;;;;;;5069849;28;20475;-59
2022/07/04 01:05:59;;;;;;;7.93;2.80;;;20.70;99.90;;;;;;5069669;28;21162;-58
2022/07/04 01:08:25;;;;;;;7.60;3.10;;;20.70;99.90;;;;;;5070119;28;20402;-56
2022/07/04 01:10:50;;;;;;;8.60;2.85;;;20.80;99.90;;;;;;5071594;28;20412;-54
2022/07/04 01:13:20;;;;;;;6.90;2.92;;;20.70;99.90;;;;;;5069290;28;21076;-55
2022/07/04 01:15:46;;;;;;;8.13;3.00;;;20.70;99.90;;;;;;5070706;28;20387;-55
2022/07/04 01:18:12;;;;;;;11.95;3.40;;;20.70;99.90;;;;;;5068833;28;20387;-55
2022/07/04 01:20:38;;;;;;;8.48;3.00;;;20.60;99.90;;;;;;5071097;28;20398;-55
2022/07/04 01:23:04;;;;;;;6.57;2.65;;;20.60;99.90;;;;;;5069242;28;20382;-55
2022/07/04 01:25:32;;;;;;;6.20;2.90;;;20.60;99.90;;;;;;5069566;28;20426;-55
2022/07/04 01:28:01;;;;;;;6.00;2.87;;;20.50;99.90;;;;;;5069485;28;20376;-56
2022/07/04 01:30:28;;;;;;;6.63;2.70;;;20.40;99.90;;;;;;5069798;28;20427;-55
2022/07/04 01:32:54;;;;;;;7.32;2.70;;;20.40;99.90;;;;;;5068134;28;20384;-55
2022/07/04 01:35:20;;;;;;;9.50;3.03;;;20.30;99.90;;;;;;5069819;28;20411;-55
2022/07/04 01:37:46;;;;;;;7.45;2.90;;;20.30;99.90;;;;;;5070099;28;20388;-56
2022/07/04 01:40:13;;;;;;;7.47;3.10;;;20.20;99.90;;;;;;5069893;28;20887;-55
2022/07/04 01:42:42;;;;;;;6.80;2.88;;;20.30;99.90;;;;;;5069277;28;20410;-55
2022/07/04 01:45:09;;;;;;;6.57;2.80;;;20.30;99.90;;;;;;5068614;28;20427;-56
2022/07/04 01:47:35;;;;;;;6.07;2.72;;;20.40;99.90;;;;;;5068184;28;20459;-55
2022/07/04 01:50:02;;;;;;;6.30;2.85;;;20.30;99.90;;;;;;5068553;28;20586;-56
2022/07/04 01:52:27;;;;;;;7.28;2.90;;;20.30;99.90;;;;;;5069228;28;20884;-55
2022/07/04 01:54:53;;;;;;;7.30;2.90;;;20.30;99.90;;;;;;5068662;28;20383;-55
2022/07/04 01:57:19;;;;;;;6.70;2.90;;;20.30;99.90;;;;;;5069274;28;20863;-55
2022/07/04 02:02:28;;;;;;;7.88;3.13;;;20.10;99.90;;;;;;5067860;28;20724;-55
2022/07/04 02:04:54;;;;;;;7.45;3.00;;;20.20;99.90;;;;;;5068348;28;20383;-55
2022/07/04 02:07:20;;;;;;;7.90;3.20;;;20.10;99.90;;;;;;5067578;28;20498;-55
2022/07/04 02:09:46;;;;;;;10.10;2.70;;;20.10;99.90;;;;;;5068601;28;20902;-55
2022/07/04 02:14:56;;;;;;;8.23;3.60;;;20.10;99.90;;;;;;5064992;28;20405;-56
2022/07/04 02:17:22;;;;;;;7.40;2.90;;;20.00;1.00;;;;;;5067010;28;20404;-56
2022/07/04 02:19:48;;;;;;;7.10;3.00;;;20.00;1.00;;;;;;5066929;28;20445;-55
2022/07/04 02:22:14;;;;;;;7.35;3.00;;;19.90;1.00;;;;;;5067171;28;20877;-56
2022/07/04 02:24:41;;;;;;;7.07;3.08;;;19.90;1.00;;;;;;5068166;28;20410;-57
2022/07/04 02:27:06;;;;;;;9.93;3.10;;;19.90;1.00;;;;;;5067862;28;20748;-58
2022/07/04 02:29:32;;;;;;;7.40;3.38;;;19.80;1.00;;;;;;5068311;28;20553;-62
2022/07/04 02:31:58;;;;;;;6.53;3.20;;;19.80;1.00;;;;;;5068011;28;20419;-57
2022/07/04 02:34:24;;;;;;;9.33;2.80;;;19.80;1.00;;;;;;5067891;28;20853;-62
2022/07/04 02:36:49;;;;;;;6.65;2.83;;;19.80;1.00;;;;;;5068081;28;20464;-61
2022/07/04 02:39:15;;;;;;;8.03;3.10;;;19.80;1.00;;;;;;5064713;28;20474;-56
2022/07/04 02:41:41;;;;;;;8.60;3.40;;;19.80;1.00;;;;;;5069550;28;20398;-57
2022/07/04 02:44:07;;;;;;;6.97;2.90;;;19.70;1.00;;;;;;5067432;28;20372;-59
2022/07/04 02:46:33;;;;;;;7.75;2.90;;;19.80;1.00;;;;;;5068239;28;20396;-55
2022/07/04 02:48:59;;;;;;;11.13;3.20;;;19.80;1.00;;;;;;5067521;28;20889;-55
2022/07/04 02:51:25;;;;;;;7.10;3.50;;;19.70;1.00;;;;;;5069389;28;20396;-55
2022/07/04 02:53:51;;;;;;;7.30;3.20;;;19.70;1.00;;;;;;5068000;28;20399;-55
2022/07/04 02:56:17;;;;;;;6.43;3.00;;;19.60;1.00;;;;;;5067501;28;20508;-55
2022/07/04 02:58:42;;;;;;;8.35;3.42;;;19.60;1.00;;;;;;5068980;28;20517;-55
2022/07/04 03:01:08;;;;;;;6.47;3.00;;;19.60;1.00;;;;;;5067510;28;20841;-56
2022/07/04 03:03:35;;;;;;;7.25;2.83;;;19.60;1.00;;;;;;5068055;28;20384;-56
2022/07/04 03:06:01;;;;;;;7.90;3.10;;;19.60;1.00;;;;;;5068706;28;20871;-56
2022/07/04 03:08:27;;;;;;;7.50;3.30;;;19.60;1.00;;;;;;5068163;28;20836;-56
2022/07/04 03:10:53;;;;;;;7.97;2.95;;;19.70;1.00;;;;;;5068691;28;20395;-56
2022/07/04 03:13:19;;;;;;;8.90;3.30;;;19.70;1.00;;;;;;5067268;28;20494;-55
2022/07/04 03:15:45;;;;;;;7.30;3.10;;;19.80;1.00;;;;;;5067557;28;20412;-56
2022/07/04 03:18:12;;;;;;;8.07;3.53;;;19.70;1.00;;;;;;5066890;28;20384;-56
2022/07/04 03:20:37;;;;;;;8.93;3.15;;;19.70;1.00;;;;;;5069436;28;20404;-56
2022/07/04 03:23:03;;;;;;;8.27;2.93;;;19.70;1.00;;;;;;5071339;28;20467;-56
2022/07/04 03:25:29;;;;;;;7.43;3.38;;;19.60;1.00;;;;;;5070634;28;20400;-56
2022/07/04 03:27:55;;;;;;;7.30;3.20;;;19.50;1.00;;;;;;5070640;28;20406;-56
2022/07/04 03:30:20;;;;;;;8.80;3.37;;;19.40;1.00;;;;;;5070770;28;20408;-56
2022/07/04 03:32:46;;;;;;;6.47;3.25;;;19.40;1.00;;;;;;5072124;28;20436;-55
2022/07/04 03:35:12;;;;;;;8.63;3.72;;;19.30;1.00;;;;;;5071053;28;20390;-56
2022/07/04 03:37:38;;;;;;;9.00;3.73;;;19.30;1.00;;;;;;5072321;28;20841;-56
2022/07/04 03:40:04;;;;;;;7.05;3.50;;;19.20;1.00;;;;;;5071320;28;20392;-56
2022/07/04 03:42:30;;;;;;;8.60;3.35;;;19.10;38.90;;;;;;5071940;28;20625;-56
2022/07/04 03:44:56;;;;;;;8.33;3.50;;;19.00;99.90;;;;;;5071990;28;20566;-55
2022/07/04 03:47:22;;;;;;;9.30;3.30;;;19.00;99.90;;;;;;5071210;28;20470;-55
2022/07/04 03:49:48;;;;;;;10.50;3.50;;;19.00;99.90;;;;;;5072128;28;21035;-56
2022/07/04 03:52:13;;;;;;;7.43;3.22;;;19.00;99.90;;;;;;5070979;28;20510;-56
2022/07/04 03:54:39;;;;;;;8.52;3.60;;;19.00;99.90;;;;;;5071742;28;20402;-56
2022/07/04 03:57:05;;;;;;;10.98;4.40;;;19.00;99.90;;;;;;5071245;28;20380;-56
2022/07/04 03:59:30;;;;;;;9.30;3.90;;;18.90;1.00;;;;;;5069344;28;20488;-56
2022/07/04 04:01:56;;;;;;;7.30;3.70;;;18.90;1.00;;;;;;5070314;28;20529;-57
2022/07/04 04:07:06;;;;;;;7.53;3.40;;;18.90;1.00;;;;;;5071887;28;20395;-56
2022/07/04 04:09:32;;;;;;;8.45;3.40;;;19.00;1.00;;;;;;5072200;28;20667;-55
2022/07/04 04:11:57;;;;;;;7.37;3.50;;;19.00;30.70;;;;;;5078504;28;20444;-55
2022/07/04 04:14:24;;;;;;;7.80;3.70;;;19.10;1.00;;;;;;5091405;28;20423;-55
2022/07/04 04:16:50;;;;;;;7.90;3.70;;;19.10;1.00;;;;;;5084366;28;20402;-55
2022/07/04 04:19:15;;;;;;;13.50;4.15;;;19.10;1.00;;;;;;5070789;28;20479;-56
2022/07/04 04:21:41;;;;;;;7.17;3.50;;;19.10;1.00;;;;;;5071232;28;20777;-56
2022/07/04 04:24:07;;;;;;;10.97;3.60;;;19.20;1.00;;;;;;5070561;28;20418;-56
2022/07/04 04:26:33;;;;;;;7.40;3.53;;;19.20;1.00;;;;;;5071511;28;20526;-55
2022/07/04 04:28:59;;;;;;;7.60;3.40;;;19.10;2.80;;;;;;5081884;28;20818;-56
2022/07/04 04:31:25;;;;;;;6.87;3.20;;;19.00;79.70;;;;;;5068842;28;20406;-55
2022/07/04 04:33:50;;;;;;;8.63;3.70;;;19.00;99.90;;;;;;5071450;28;20387;-56
2022/07/04 04:36:16;;;;;;;8.35;3.60;;;19.10;99.90;;;;;;5070797;28;20443;-56
2022/07/04 04:38:42;;;;;;;7.60;3.38;;;19.10;99.90;;;;;;5071378;28;20422;-56
2022/07/04 04:41:08;;;;;;;8.90;3.70;;;19.20;1.00;;;;;;5069330;28;20411;-55
2022/07/04 04:43:33;;;;;;;7.38;3.50;;;19.10;1.00;;;;;;5071227;28;20406;-56
2022/07/04 04:45:59;;;;;;;7.28;2.85;;;19.10;1.00;;;;;;5088952;28;20386;-56
2022/07/04 04:48:25;;;;;;;11.40;3.73;;;19.10;1.00;;;;;;5090274;28;20378;-56
2022/07/04 04:50:51;;;;;;;9.50;3.53;;;19.20;99.90;;;;;;5073668;28;20803;-56
2022/07/04 04:53:17;;;;;;;7.40;3.30;;;19.40;99.90;;;;;;5070443;28;20380;-63
2022/07/04 04:55:42;;;;;;;7.30;3.30;;;19.60;98.00;;;;;;5061113;28;20443;-57
2022/07/04 04:58:08;;;;;;;8.10;3.60;;;19.60;53.20;;;;;;5056214;28;20399;-63
2022/07/04 05:00:34;;;;;;;6.95;3.10;;;19.60;39.80;;;;;;5071052;28;20505;-60
2022/07/04 05:02:59;;;;;;;6.78;3.22;;;19.70;1.00;;;;;;5068778;28;20380;-58
2022/07/04 05:05:25;;;;;;;7.68;3.38;;;20.00;1.00;;;;;;5068169;28;20424;-61
2022/07/04 05:07:51;;;;;;;11.30;3.43;;;20.30;1.00;;;;;;5064180;28;20397;-56
2022/07/04 05:10:17;;;;;;;6.63;2.70;;;20.70;1.00;;;;;;5072639;28;20434;-56
2022/07/04 05:12:43;;;;;;;7.47;3.10;;;20.90;1.00;;;;;;5090294;28;20893;-56
2022/07/04 05:15:10;;;;;;;8.23;3.10;;;21.10;1.00;;;;;;5087885;28;20420;-56
2022/07/04 05:17:36;;;;;;;6.80;3.00;;;21.20;1.00;;;;;;5090318;28;20373;-56
2022/07/04 05:20:02;;;;;;;9.70;2.92;;;21.20;1.00;;;;;;5088609;28;20426;-56
2022/07/04 05:22:28;;;;;;;7.43;2.80;;;21.00;1.00;;;;;;5090305;28;20678;-56
2022/07/04 05:24:54;;;;;;;7.38;2.40;;;21.20;99.90;;;;;;5088428;28;20501;-59
2022/07/04 05:27:20;;;;;;;9.27;2.90;;;21.40;99.90;;;;;;5090317;28;20381;-63
2022/07/04 05:29:45;;;;;;;7.00;2.53;;;21.70;99.90;;;;;;5088521;28;20808;-64
2022/07/04 05:32:11;;;;;;;6.10;2.50;;;22.00;99.90;;;;;;5088563;28;20394;-64
2022/07/04 05:34:37;;;;;;;7.18;2.63;;;22.40;99.90;;;;;;5089888;28;20378;-64
2022/07/04 05:37:03;;;;;;;6.05;2.40;;;22.60;99.90;;;;;;5073224;28;20398;-58
2022/07/04 05:39:29;;;;;;;6.63;2.40;;;23.10;99.90;;;;;;5070162;28;20394;-57
2022/07/04 05:41:54;;;;;;;6.43;2.20;;;23.30;99.90;;;;;;5088085;28;20386;-56
2022/07/04 05:44:20;;;;;;;9.05;2.78;;;23.00;99.90;;;;;;5087401;28;20382;-56
2022/07/04 05:46:46;;;;;;;6.47;2.30;;;22.40;99.90;;;;;;5090424;28;20374;-57
2022/07/04 05:49:11;;;;;;;8.10;2.30;;;22.60;99.90;;;;;;5071519;28;20404;-57
2022/07/04 05:51:37;;;;;;;9.07;2.60;;;23.30;99.90;;;;;;5069774;28;20384;-56
2022/07/04 05:54:02;;;;;;;9.30;2.60;;;23.60;99.90;;;;;;5070059;28;20400;-57
2022/07/04 05:56:28;;;;;;;9.30;2.30;;;24.40;99.90;;;;;;5072002;28;20402;-57
2022/07/04 05:58:54;;;;;;;7.90;2.70;;;24.60;99.90;;;;;;5070543;28;20399;-57
2022/07/04 06:01:20;;;;;;;7.30;2.00;;;24.70;99.90;;;;;;5070496;28;20403;-57
2022/07/04 06:03:45;;;;;;;5.70;2.00;;;25.20;99.90;;;;;;5066741;28;21412;-57
2022/07/04 06:06:11;;;;;;;7.57;2.70;;;26.00;99.90;;;;;;5064815;28;20426;-57
2022/07/04 06:08:37;;;;;;;7.87;2.07;;;25.90;99.90;;;;;;5069921;28;20384;-57
2022/07/04 06:11:03;;;;;;;6.10;2.00;;;25.20;99.90;;;;;;5070188;28;20396;-57
2022/07/04 06:13:29;;;;;;;7.10;2.10;;;24.60;99.90;;;;;;5070356;28;20396;-57
2022/07/04 06:15:55;;;;;;;7.07;2.60;;;24.60;99.90;;;;;;5069347;28;20706;-57
2022/07/04 06:18:21;;;;;;;5.85;2.42;;;24.30;99.90;;;;;;5068689;28;20977;-57
2022/07/04 06:20:46;;;;;;;9.50;2.58;;;24.10;99.90;;;;;;5069182;28;20494;-57
2022/07/04 06:23:12;;;;;;;6.78;2.20;;;23.70;99.90;;;;;;5068527;28;20464;-57
2022/07/04 06:25:37;;;;;;;7.05;2.15;;;24.10;99.90;;;;;;5069109;28;20404;-57
2022/07/04 06:28:03;;;;;;;8.17;2.00;;;24.60;99.90;;;;;;5069740;28;20549;-57
2022/07/04 06:30:29;;;;;;;7.70;2.30;;;24.60;99.90;;;;;;5069162;28;20814;-57
2022/07/04 06:32:57;;;;;;;7.60;2.40;;;24.80;99.90;;;;;;5069896;28;20388;-57
2022/07/04 06:38:19;;;;;;;8.75;2.50;;;25.40;99.90;;;;;;5086924;28;20475;-57
2022/07/04 06:40:45;;;;;;;7.73;2.40;;;25.60;99.90;;;;;;5071759;28;21026;-57
2022/07/04 06:43:11;;;;;;;7.07;2.50;;;25.80;99.90;;;;;;5071549;28;20872;-57
2022/07/04 06:45:37;;;;;;;8.07;2.35;;;27.00;99.90;;;;;;5068813;28;20407;-57
2022/07/04 06:48:04;;;;;;;7.68;2.72;;;27.50;99.90;;;;;;5087832;28;20382;-57
2022/07/04 06:50:32;;;;;;;7.40;2.70;;;27.20;99.90;;;;;;5088921;28;20402;-57
2022/07/04 06:52:59;;;;;;;6.35;2.42;;;27.10;99.90;;;;;;5070921;28;20897;-57
2022/07/04 06:55:25;;;;;;;6.47;2.53;;;27.50;99.90;;;;;;5060132;28;20502;-57
2022/07/04 06:57:51;;;;;;;6.68;2.33;;;27.70;99.90;;;;;;5068379;28;20398;-57
2022/07/04 07:00:16;;;;;;;6.97;2.50;;;26.80;99.90;;;;;;5068296;28;20424;-57
2022/07/04 07:02:42;;;;;;;7.75;2.88;;;27.00;99.90;;;;;;5075943;28;20823;-57
2022/07/04 07:05:08;;;;;;;8.95;2.40;;;27.10;99.90;;;;;;5057972;28;20381;-57
2022/07/04 07:07:34;;;;;;;7.45;2.45;;;26.80;99.90;;;;;;5059766;28;20942;-57
2022/07/04 07:10:01;;;;;;;7.75;2.60;;;26.30;99.90;;;;;;5064511;28;20410;-57
2022/07/04 07:12:27;;;;;;;7.10;2.60;;;25.90;99.90;;;;;;5063182;28;20403;-57
2022/07/04 07:14:53;;;;;;;8.70;2.95;;;26.10;99.90;;;;;;5067820;28;20792;-57
2022/07/04 07:17:18;;;;;;;8.27;2.80;;;26.10;99.90;;;;;;5066588;28;20483;-57
2022/07/04 07:19:45;;;;;;;11.27;2.90;;;26.10;99.90;;;;;;5065162;28;20383;-57
2022/07/04 07:22:12;;;;;;;9.47;2.60;;;26.40;99.90;;;;;;5068647;28;20395;-57
2022/07/04 07:24:38;;;;;;;7.40;2.45;;;26.40;99.90;;;;;;5061177;28;20416;-57
2022/07/04 07:27:05;;;;;;;7.07;2.40;;;26.20;99.90;;;;;;5057877;28;20478;-57
2022/07/04 07:29:31;;;;;;;8.73;3.10;;;25.90;99.90;;;;;;5066416;28;20875;-57
2022/07/04 07:31:58;;;;;;;7.32;2.60;;;25.60;99.90;;;;;;5066834;28;20395;-57
2022/07/04 07:34:23;;;;;;;6.32;2.38;;;25.30;99.90;;;;;;5062601;28;20472;-57
2022/07/04 07:36:49;;;;;;;9.10;2.40;;;25.00;99.90;;;;;;5055234;28;20591;-57
2022/07/04 07:39:15;;;;;;;8.20;3.20;;;24.90;99.90;;;;;;5062054;28;20464;-56
2022/07/04 07:41:41;;;;;;;8.80;2.63;;;24.90;99.90;;;;;;5064745;28;20869;-57
2022/07/04 07:44:07;;;;;;;6.57;2.80;;;25.10;99.90;;;;;;5052272;28;20496;-57
2022/07/04 07:46:33;;;;;;;8.00;2.80;;;24.70;99.90;;;;;;5056007;28;20569;-57
2022/07/04 07:48:59;;;;;;;7.70;2.40;;;24.70;99.90;;;;;;5058287;28;20417;-57
2022/07/04 07:51:24;;;;;;;7.00;2.80;;;24.60;99.90;;;;;;5061964;28;20387;-57
2022/07/04 07:53:50;;;;;;;9.00;2.70;;;24.80;99.90;;;;;;5051995;28;20383;-57
2022/07/04 07:56:16;;;;;;;6.78;3.10;;;24.80;99.90;;;;;;5060017;28;20859;-57
2022/07/04 07:58:41;;;;;;;7.53;2.90;;;24.80;99.90;;;;;;5059161;28;20933;-57
2022/07/04 08:01:07;;;;;;;6.00;2.57;;;24.70;99.90;;;;;;5047602;28;20816;-57
2022/07/04 08:06:17;;;;;;;6.60;2.47;;;25.10;99.90;;;;;;5061921;28;20847;-57
2022/07/04 08:08:43;;;;;;;6.88;2.70;;;25.10;99.90;;;;;;5064362;28;20521;-57
2022/07/04 08:11:10;;;;;;;7.40;2.92;;;25.00;99.90;;;;;;5064577;28;20439;-57
2022/07/04 08:13:37;;;;;;;7.65;2.97;;;25.40;99.90;;;;;;5068565;28;20483;-57
2022/07/04 08:16:03;;;;;;;8.80;2.88;;;25.20;99.90;;;;;;5063064;28;20436;-57
2022/07/04 08:18:29;;;;;;;8.00;3.20;;;24.60;99.90;;;;;;5070219;28;20447;-57
2022/07/04 08:20:55;;;;;;;7.10;2.90;;;24.30;99.90;;;;;;5053051;28;20389;-57
2022/07/04 08:23:21;;;;;;;7.60;3.10;;;24.30;99.90;;;;;;5067036;28;20905;-57
2022/07/04 08:25:46;;;;;;;8.50;3.10;;;23.90;99.90;;;;;;5071025;28;20861;-57
2022/07/04 08:28:12;;;;;;;6.60;3.03;;;24.10;99.90;;;;;;5065970;28;20389;-57
2022/07/04 08:30:38;;;;;;;5.87;2.53;;;24.80;99.90;;;;;;5064713;28;20413;-56
2022/07/04 08:33:03;;;;;;;6.93;2.80;;;26.00;99.90;;;;;;5066769;28;20877;-57
2022/07/04 08:35:29;;;;;;;7.70;3.10;;;25.70;99.90;;;;;;5069716;28;20392;-57
2022/07/04 08:37:55;;;;;;;7.00;3.00;;;25.60;99.90;;;;;;5070351;28;20510;-57
2022/07/04 08:40:28;;;;;;;7.00;2.70;;;26.10;99.90;;;;;;5066053;28;20390;-57
2022/07/04 08:42:55;;;;;;;8.07;3.20;;;26.20;99.90;;;;;;5066118;28;20455;-57
2022/07/04 08:45:27;;;;;;;7.50;3.30;;;26.00;99.90;;;;;;5066435;28;20806;-57
2022/07/04 08:48:03;;;;;;;7.20;3.10;;;26.00;99.90;;;;;;5066639;28;20851;-57
2022/07/04 08:50:53;;;;;;;7.70;2.80;;;26.00;99.90;;;;;;5064205;28;20421;-57
2022/07/04 08:53:20;;;;;;;9.00;2.90;;;26.40;99.90;;;;;;5061729;28;20396;-57
2022/07/04 08:58:33;;;;;;;9.90;3.20;;;26.30;99.90;;;;;;5066669;28;20808;-58
2022/07/04 09:01:01;;;;;;;8.67;2.70;;;26.50;99.90;;;;;;5067500;28;20401;-57
2022/07/04 09:03:29;;;;;;;11.88;5.43;;;26.70;99.90;;;;;;5066722;28;20983;-57
2022/07/04 09:05:55;;;;;;;8.40;3.20;;;27.60;99.90;;;;;;5060463;28;20397;-57
2022/07/04 09:08:22;;;;;;;7.63;3.22;;;28.70;99.90;;;;;;5064085;28;20466;-57
2022/07/04 09:10:48;;;;;;;7.00;3.10;;;28.80;99.90;;;;;;5065634;28;20415;-57
2022/07/04 09:13:15;;;;;;;7.90;3.20;;;29.70;99.90;;;;;;5059683;28;20376;-57
2022/07/04 09:15:42;;;;;;;9.05;2.60;;;30.00;99.90;;;;;;5064843;28;20391;-57
2022/07/04 09:18:20;;;;;;;7.80;3.10;;;29.90;99.90;;;;;;5062419;28;20379;-57
2022/07/04 09:20:46;;;;;;;10.38;3.10;;;29.10;99.90;;;;;;5066732;28;20386;-57
2022/07/04 09:23:26;;;;;;;7.47;3.30;;;28.40;99.90;;;;;;5066448;28;20376;-57
2022/07/04 09:26:08;;;;;;;7.20;2.90;;;28.40;99.90;;;;;;5064806;28;20888;-57
2022/07/04 09:28:34;;;;;;;6.53;2.60;;;28.90;99.90;;;;;;5065873;28;20935;-57
2022/07/04 09:31:00;;;;;;;8.68;3.10;;;29.30;99.90;;;;;;5064884;28;20420;-57
2022/07/04 09:33:46;;;;;;;7.20;3.30;;;29.20;99.90;;;;;;5065171;28;20944;-57
2022/07/04 09:36:13;;;;;;;11.40;3.45;;;28.70;99.90;;;;;;5067070;28;20467;-57
2022/07/04 09:38:39;;;;;;;7.70;3.00;;;29.10;99.90;;;;;;5063785;28;20927;-57
2022/07/04 09:44:00;;;;;;;6.30;3.00;;;31.50;99.90;;;;;;5064988;28;20527;-57
2022/07/04 09:46:26;;;;;;;6.60;2.90;;;32.20;99.90;;;;;;5068849;28;20571;-57
2022/07/04 09:48:52;;;;;;;8.07;3.20;;;32.80;99.90;;;;;;5065077;28;20910;-58
2022/07/04 09:51:37;;;;;;;9.73;3.40;;;32.80;99.90;;;;;;5066252;28;20388;-57
2022/07/04 09:54:13;;;;;;;7.45;3.67;;;32.50;99.90;;;;;;5066866;28;20442;-57
2022/07/04 09:56:47;;;;;;;7.30;3.08;;;32.90;99.90;;;;;;5061880;28;20384;-57
2022/07/04 09:59:13;;;;;;;7.70;3.40;;;31.80;99.90;;;;;;5064134;28;20471;-57
2022/07/04 10:01:39;;;;;;;7.35;3.50;;;30.90;99.90;;;;;;5065061;28;20373;-57
2022/07/04 10:04:06;;;;;;;7.40;3.80;;;31.40;99.90;;;;;;5065204;28;20380;-57
2022/07/04 10:06:33;;;;;;;9.40;3.20;;;31.50;99.90;;;;;;5062570;28;20875;-57
2022/07/04 10:09:15;;;;;;;7.60;2.83;;;31.80;99.90;;;;;;5061222;28;20469;-57
2022/07/04 10:11:43;;;;;;;9.27;3.00;;;32.00;99.90;;;;;;5065648;28;20469;-57
2022/07/04 10:14:11;;;;;;;6.38;3.03;;;31.30;99.90;;;;;;5063717;28;20420;-58
2022/07/04 10:16:38;;;;;;;6.22;3.13;;;31.70;99.90;;;;;;5064400;28;20372;-57
2022/07/04 10:19:05;;;;;;;7.90;2.53;;;31.50;99.90;;;;;;5064721;28;20400;-58
2022/07/04 10:21:31;;;;;;;7.70;3.00;;;31.90;99.90;;;;;;5067825;28;20389;-57
2022/07/04 10:23:58;;;;;;;7.13;2.57;;;31.50;99.90;;;;;;5063481;28;20379;-57
2022/07/04 10:26:24;;;;;;;8.40;3.20;;;32.10;99.90;;;;;;5060792;28;20500;-58
2022/07/04 10:28:52;;;;;;;7.80;3.10;;;32.60;99.90;;;;;;5061729;28;20480;-57
2022/07/04 10:31:20;;;;;;;6.50;2.70;;;31.90;99.90;;;;;;5051061;28;20425;-57
2022/07/04 10:33:46;;;;;;;7.07;2.70;;;31.30;99.90;;;;;;5058491;28;20412;-57
2022/07/04 10:36:21;;;;;;;5.73;2.40;;;31.60;99.90;;;;;;5067738;28;20431;-57
2022/07/04 10:38:52;;;;;;;6.47;3.03;;;32.10;99.90;;;;;;5066821;28;20380;-57
2022/07/04 10:41:21;;;;;;;7.50;3.30;;;32.30;99.90;;;;;;5065977;28;20719;-57
2022/07/04 10:43:56;;;;;;;7.47;2.90;;;31.60;99.90;;;;;;5055556;28;20924;-57
2022/07/04 10:46:36;;;;;;;7.22;3.70;;;30.50;99.90;;;;;;5054633;28;20393;-57
2022/07/04 10:49:07;;;;;;;7.45;2.53;;;29.70;99.90;;;;;;5051844;28;20478;-57
2022/07/04 10:51:47;;;;;;;8.00;2.47;;;29.50;99.90;;;;;;5063515;28;20402;-57
2022/07/04 10:54:29;;;;;;;6.38;2.50;;;29.40;99.90;;;;;;5066948;28;20502;-57
2022/07/04 10:56:57;;;;;;;6.50;2.40;;;29.40;99.90;;;;;;5055772;28;20429;-57
2022/07/04 10:59:27;;;;;;;8.20;2.20;;;29.30;99.90;;;;;;5053595;28;20444;-57
2022/07/04 11:02:16;;;;;;;6.80;2.70;;;29.40;99.90;;;;;;5063368;28;20462;-57
2022/07/04 11:04:58;;;;;;;6.15;2.10;;;30.00;99.90;;;;;;5065734;28;20449;-56
2022/07/04 11:07:29;;;;;;;7.30;1.90;;;30.40;99.90;;;;;;5058529;28;20940;-57
2022/07/04 11:10:13;;;;;;;9.52;2.47;;;30.30;99.90;;;;;;5048260;28;20462;-57
2022/07/04 11:12:59;;;;;;;6.35;2.40;;;30.10;99.90;;;;;;5050055;28;20397;-56
2022/07/04 11:15:25;;;;;;;6.20;1.80;;;30.30;99.90;;;;;;5071725;28;20394;-57
2022/07/04 11:17:52;;;;;;;7.88;2.20;;;30.20;99.90;;;;;;5059179;28;20382;-57
2022/07/04 11:20:19;;;;;;;6.30;2.42;;;29.90;99.90;;;;;;5054734;28;20390;-56
2022/07/04 11:22:44;;;;;;;7.37;2.00;;;30.00;99.90;;;;;;5069339;28;20407;-56
2022/07/04 11:25:11;;;;;;;6.83;2.30;;;30.00;99.90;;;;;;5055843;28;20408;-57
2022/07/04 11:27:38;;;;;;;8.50;2.10;;;29.40;99.90;;;;;;5066283;28;20438;-56
2022/07/04 11:30:05;;;;;;;7.70;2.45;;;29.60;99.90;;;;;;5051352;28;20476;-57
2022/07/04 11:32:33;;;;;;;6.03;2.28;;;29.80;99.90;;;;;;5048227;28;20743;-57
2022/07/04 11:34:59;;;;;;;6.90;2.25;;;29.90;99.90;;;;;;5061669;28;20391;-57
2022/07/04 11:37:25;;;;;;;6.40;2.10;;;29.70;99.90;;;;;;5052829;28;20384;-57
2022/07/04 11:39:52;;;;;;;7.25;2.10;;;29.30;99.90;;;;;;5053915;28;20463;-57
2022/07/04 11:45:04;;;;;;;7.10;2.60;;;29.30;99.90;;;;;;5063173;28;20396;-57
2022/07/04 11:47:41;;;;;;;11.57;2.40;;;29.10;99.90;;;;;;5056157;28;20503;-57
2022/07/04 11:50:13;;;;;;;6.50;2.10;;;29.10;99.90;;;;;;5051511;28;20417;-57
2022/07/04 11:52:46;;;;;;;6.97;2.50;;;29.50;99.90;;;;;;5052092;28;20902;-57
2022/07/04 11:55:14;;;;;;;6.60;2.22;;;29.60;99.90;;;;;;5051375;28;20393;-57
2022/07/04 11:57:52;;;;;;;6.35;2.10;;;29.60;99.90;;;;;;5071248;28;20419;-57
2022/07/04 12:00:26;;;;;;;7.88;2.88;;;28.90;99.90;;;;;;5064022;28;20393;-57
2022/07/04 12:02:51;;;;;;;10.07;2.40;;;28.90;99.90;;;;;;5052025;28;20385;-57
2022/07/04 12:05:18;;;;;;;8.32;2.15;;;28.80;99.90;;;;;;5066545;28;20403;-57
2022/07/04 12:07:46;;;;;;;7.00;2.40;;;28.90;99.90;;;;;;5066972;28;20457;-57
2022/07/04 12:10:18;;;;;;;9.40;2.63;;;29.00;99.90;;;;;;5055462;28;21080;-57
2022/07/04 12:12:53;;;;;;;7.25;2.38;;;28.80;99.90;;;;;;5057022;28;20393;-57
2022/07/04 12:15:20;;;;;;;6.63;2.88;;;28.90;99.90;;;;;;5050789;28;20408;-57
2022/07/04 12:17:51;;;;;;;8.00;2.40;;;29.10;99.90;;;;;;5053527;28;20414;-57
2022/07/04 12:20:17;;;;;;;6.90;2.30;;;29.20;99.90;;;;;;5061455;28;20390;-56
2022/07/04 12:22:54;;;;;;;6.20;2.58;;;29.40;99.90;;;;;;5067515;28;20368;-56
2022/07/04 12:25:36;;;;;;;7.10;2.35;;;29.60;99.90;;;;;;5057837;28;21021;-56
2022/07/04 12:28:14;;;;;;;9.00;2.33;;;29.80;99.90;;;;;;5063061;28;20480;-56
2022/07/04 12:30:55;;;;;;;6.93;2.63;;;29.80;99.90;;;;;;5057504;28;20471;-56
2022/07/04 12:33:28;;;;;;;9.20;2.50;;;29.70;99.90;;;;;;5068775;28;20496;-56
2022/07/04 12:36:11;;;;;;;6.70;2.60;;;29.10;99.90;;;;;;5065866;28;20392;-56
2022/07/04 12:38:41;;;;;;;6.35;2.65;;;28.80;99.90;;;;;;5066266;28;20909;-56
2022/07/04 12:41:11;;;;;;;7.80;2.47;;;28.80;99.90;;;;;;5058288;28;20401;-56
2022/07/04 12:43:39;;;;;;;5.75;2.00;;;29.10;99.90;;;;;;5061386;28;20383;-57
2022/07/04 12:46:06;;;;;;;6.53;2.50;;;29.30;99.90;;;;;;5070958;28;20416;-56
2022/07/04 12:48:32;;;;;;;8.07;2.53;;;29.10;99.90;;;;;;5058600;28;20393;-57
2022/07/04 12:51:17;;;;;;;6.55;2.65;;;28.70;99.90;;;;;;5062913;28;20417;-56
2022/07/04 12:53:44;;;;;;;7.67;3.07;;;28.60;99.90;;;;;;5063982;28;20488;-56
2022/07/04 12:56:31;;;;;;;8.38;2.85;;;28.70;99.90;;;;;;5068220;28;20392;-57
2022/07/04 12:58:58;;;;;;;6.95;3.00;;;28.80;99.90;;;;;;5049838;28;20720;-57
2022/07/04 13:01:24;;;;;;;8.00;2.90;;;29.30;99.90;;;;;;5066552;28;20414;-57
2022/07/04 13:03:49;;;;;;;6.40;2.80;;;29.30;99.90;;;;;;5066010;28;20700;-57
2022/07/04 13:06:15;;;;;;;8.45;2.40;;;29.30;99.90;;;;;;5063005;28;20417;-56
2022/07/04 13:08:41;;;;;;;6.55;2.95;;;29.00;99.90;;;;;;5060826;28;20386;-56
2022/07/04 13:13:51;;;;;;;6.85;2.83;;;29.30;99.90;;;;;;5064701;28;20375;-56